Emerado, North Dakota
Current Conditions -  °F | °C
As of 10:58 PM on Friday 28 Nov 2014 (Local Time) from KRDR Reporting Station
Overcast Overcast  
Wind Chill:   Ceiling: 1400
Heat Index: 16°   Visibility: 10mi
Dew Point: 13°   Wind: 10mph
Humidity: 85%   Direction: 180°S
Pressure: 29.57"   Gusts: NA
Location:  47.92°N, 97.37°W
Report Text: KRDR 290458Z AUTO 18009KT 10SM OVC014 M09/M11 A2957 RMK AO2 SLP036 T10871108
Loading
Personal Weather Stations






























Interactive Weather Map New forecast layout! Learn more

10-Day Weather Forecast

Advertisements
Track Severe Weather on mobile